sensor_id;sensor_type;location;lat;lon;timestamp;pressure;altitude;pressure_sealevel;temperature;humidity
56689;BME280;42565;53.342;-1.534;2024-03-23T00:53:57;98486.99;;;5.39;67.11
56689;BME280;42565;53.342;-1.534;2024-03-23T00:56:24;98486.04;;;5.55;67.99
56689;BME280;42565;53.342;-1.534;2024-03-23T00:58:50;98482.27;;;5.21;68.74
56689;BME280;42565;53.342;-1.534;2024-03-23T01:01:17;98476.57;;;5.28;68.84
56689;BME280;42565;53.342;-1.534;2024-03-23T01:03:44;98474.91;;;5.32;68.96
56689;BME280;42565;53.342;-1.534;2024-03-23T01:06:11;98473.27;;;5.27;68.37
56689;BME280;42565;53.342;-1.534;2024-03-23T01:08:38;98477.14;;;5.72;69.38
56689;BME280;42565;53.342;-1.534;2024-03-23T01:11:05;98465.29;;;5.42;68.30
56689;BME280;42565;53.342;-1.534;2024-03-23T01:13:32;98460.07;;;4.67;68.78
56689;BME280;42565;53.342;-1.534;2024-03-23T01:15:59;98456.11;;;5.45;69.36
56689;BME280;42565;53.342;-1.534;2024-03-23T01:18:27;98454.88;;;5.30;69.52
56689;BME280;42565;53.342;-1.534;2024-03-23T01:20:54;98451.66;;;4.99;69.49
56689;BME280;42565;53.342;-1.534;2024-03-23T01:23:20;98449.82;;;4.82;71.30
56689;BME280;42565;53.342;-1.534;2024-03-23T01:25:52;98450.26;;;4.69;70.75
56689;BME280;42565;53.342;-1.534;2024-03-23T01:28:19;98459.68;;;4.85;70.47
56689;BME280;42565;53.342;-1.534;2024-03-23T01:30:47;98458.60;;;5.03;70.49
56689;BME280;42565;53.342;-1.534;2024-03-23T01:33:13;98454.74;;;5.00;69.86
56689;BME280;42565;53.342;-1.534;2024-03-23T01:35:41;98457.70;;;4.94;69.53
56689;BME280;42565;53.342;-1.534;2024-03-23T01:38:08;98452.05;;;4.35;71.02
56689;BME280;42565;53.342;-1.534;2024-03-23T01:40:35;98447.74;;;4.41;69.09
56689;BME280;42565;53.342;-1.534;2024-03-23T01:43:04;98444.80;;;5.39;67.87
56689;BME280;42565;53.342;-1.534;2024-03-23T01:45:32;98436.47;;;5.30;66.41
56689;BME280;42565;53.342;-1.534;2024-03-23T01:47:59;98434.60;;;5.55;65.68
56689;BME280;42565;53.342;-1.534;2024-03-23T01:50:27;98413.98;;;5.97;65.52
56689;BME280;42565;53.342;-1.534;2024-03-23T01:52:55;98414.22;;;4.92;65.19
56689;BME280;42565;53.342;-1.534;2024-03-23T01:55:22;98419.56;;;5.63;63.13
56689;BME280;42565;53.342;-1.534;2024-03-23T01:57:50;98411.73;;;5.52;62.74
56689;BME280;42565;53.342;-1.534;2024-03-23T02:00:17;98426.15;;;5.45;62.99
56689;BME280;42565;53.342;-1.534;2024-03-23T02:02:45;98434.53;;;4.90;64.34
56689;BME280;42565;53.342;-1.534;2024-03-23T02:05:13;98416.89;;;4.80;65.98
56689;BME280;42565;53.342;-1.534;2024-03-23T02:07:52;98413.37;;;4.70;64.53
56689;BME280;42565;53.342;-1.534;2024-03-23T02:10:19;98412.40;;;4.52;64.55
56689;BME280;42565;53.342;-1.534;2024-03-23T02:12:46;98412.35;;;5.18;64.17
56689;BME280;42565;53.342;-1.534;2024-03-23T02:15:13;98417.17;;;5.66;62.47
56689;BME280;42565;53.342;-1.534;2024-03-23T02:17:40;98411.00;;;4.24;63.88
56689;BME280;42565;53.342;-1.534;2024-03-23T02:20:08;98409.90;;;4.90;64.02
56689;BME280;42565;53.342;-1.534;2024-03-23T02:22:36;98399.73;;;5.34;63.51
56689;BME280;42565;53.342;-1.534;2024-03-23T02:25:04;98391.71;;;5.30;64.59
56689;BME280;42565;53.342;-1.534;2024-03-23T02:27:32;98391.25;;;4.79;64.13
56689;BME280;42565;53.342;-1.534;2024-03-23T02:29:59;98387.00;;;5.27;64.73
56689;BME280;42565;53.342;-1.534;2024-03-23T02:32:27;98379.01;;;5.96;64.80
56689;BME280;42565;53.342;-1.534;2024-03-23T02:34:54;98371.49;;;5.70;64.75
56689;BME280;42565;53.342;-1.534;2024-03-23T02:37:20;98368.69;;;5.57;64.74
56689;BME280;42565;53.342;-1.534;2024-03-23T02:39:47;98363.21;;;5.51;65.45
56689;BME280;42565;53.342;-1.534;2024-03-23T02:42:14;98359.46;;;5.67;63.56
56689;BME280;42565;53.342;-1.534;2024-03-23T02:44:41;98365.40;;;4.51;64.35
56689;BME280;42565;53.342;-1.534;2024-03-23T02:47:07;98369.66;;;5.28;64.26
56689;BME280;42565;53.342;-1.534;2024-03-23T02:49:34;98362.65;;;4.48;66.02
56689;BME280;42565;53.342;-1.534;2024-03-23T02:52:01;98370.71;;;4.67;66.54
56689;BME280;42565;53.342;-1.534;2024-03-23T02:54:28;98377.52;;;5.07;66.48
56689;BME280;42565;53.342;-1.534;2024-03-23T02:56:55;98373.52;;;4.87;66.19
56689;BME280;42565;53.342;-1.534;2024-03-23T02:59:22;98379.01;;;4.73;67.03
56689;BME280;42565;53.342;-1.534;2024-03-23T03:01:49;98376.05;;;4.56;68.39
56689;BME280;42565;53.342;-1.534;2024-03-23T03:04:16;98369.49;;;4.59;68.24
56689;BME280;42565;53.342;-1.534;2024-03-23T03:06:46;98381.56;;;4.87;66.57
56689;BME280;42565;53.342;-1.534;2024-03-23T03:09:13;98372.13;;;4.96;65.38
56689;BME280;42565;53.342;-1.534;2024-03-23T03:11:39;98371.76;;;4.84;64.61
56689;BME280;42565;53.342;-1.534;2024-03-23T03:14:06;98375.00;;;5.00;64.78
56689;BME280;42565;53.342;-1.534;2024-03-23T03:16:33;98367.69;;;4.40;64.45
56689;BME280;42565;53.342;-1.534;2024-03-23T03:19:00;98362.78;;;4.95;63.88
56689;BME280;42565;53.342;-1.534;2024-03-23T03:21:28;98355.41;;;5.04;63.76
56689;BME280;42565;53.342;-1.534;2024-03-23T03:23:56;98358.63;;;5.12;63.49
56689;BME280;42565;53.342;-1.534;2024-03-23T03:26:24;98354.63;;;5.33;63.34
56689;BME280;42565;53.342;-1.534;2024-03-23T03:28:51;98348.20;;;4.88;63.51
56689;BME280;42565;53.342;-1.534;2024-03-23T03:31:18;98350.47;;;5.30;63.46
56689;BME280;42565;53.342;-1.534;2024-03-23T03:33:44;98345.72;;;4.81;63.58
56689;BME280;42565;53.342;-1.534;2024-03-23T03:36:11;98352.01;;;4.48;63.41
56689;BME280;42565;53.342;-1.534;2024-03-23T03:38:39;98353.09;;;4.62;64.09
56689;BME280;42565;53.342;-1.534;2024-03-23T03:41:06;98347.48;;;5.43;62.57
56689;BME280;42565;53.342;-1.534;2024-03-23T03:43:33;98349.30;;;4.97;63.78
56689;BME280;42565;53.342;-1.534;2024-03-23T03:46:01;98346.56;;;5.11;61.30
56689;BME280;42565;53.342;-1.534;2024-03-23T03:48:29;98340.38;;;4.67;62.36
56689;BME280;42565;53.342;-1.534;2024-03-23T03:50:56;98327.22;;;4.49;63.84
56689;BME280;42565;53.342;-1.534;2024-03-23T03:53:23;98336.94;;;5.02;62.71
56689;BME280;42565;53.342;-1.534;2024-03-23T03:55:50;98326.24;;;5.31;62.61
56689;BME280;42565;53.342;-1.534;2024-03-23T03:58:16;98320.23;;;5.26;62.74
56689;BME280;42565;53.342;-1.534;2024-03-23T04:00:43;98309.07;;;5.11;62.06
56689;BME280;42565;53.342;-1.534;2024-03-23T04:03:10;98303.00;;;5.43;62.63
56689;BME280;42565;53.342;-1.534;2024-03-23T04:05:37;98295.41;;;5.54;64.13
56689;BME280;42565;53.342;-1.534;2024-03-23T04:08:05;98284.44;;;5.19;64.97
56689;BME280;42565;53.342;-1.534;2024-03-23T04:10:32;98281.07;;;4.28;65.41
56689;BME280;42565;53.342;-1.534;2024-03-23T04:12:59;98280.95;;;5.00;66.44
56689;BME280;42565;53.342;-1.534;2024-03-23T04:15:27;98281.42;;;4.95;67.75
56689;BME280;42565;53.342;-1.534;2024-03-23T04:17:54;98285.46;;;4.79;67.42
56689;BME280;42565;53.342;-1.534;2024-03-23T04:20:20;98280.06;;;4.52;67.57
56689;BME280;42565;53.342;-1.534;2024-03-23T04:22:47;98272.86;;;4.15;69.10
56689;BME280;42565;53.342;-1.534;2024-03-23T04:25:14;98262.10;;;4.28;69.64
56689;BME280;42565;53.342;-1.534;2024-03-23T04:27:41;98258.67;;;4.03;69.27
56689;BME280;42565;53.342;-1.534;2024-03-23T04:30:08;98264.66;;;4.34;70.60
56689;BME280;42565;53.342;-1.534;2024-03-23T04:32:35;98268.31;;;2.99;73.23
56689;BME280;42565;53.342;-1.534;2024-03-23T04:35:02;98266.42;;;3.80;73.44
56689;BME280;42565;53.342;-1.534;2024-03-23T04:37:30;98259.94;;;3.68;73.79
56689;BME280;42565;53.342;-1.534;2024-03-23T04:39:56;98257.66;;;3.76;73.95
56689;BME280;42565;53.342;-1.534;2024-03-23T04:42:24;98247.59;;;3.50;76.76
56689;BME280;42565;53.342;-1.534;2024-03-23T04:44:50;98259.51;;;3.72;74.93
56689;BME280;42565;53.342;-1.534;2024-03-23T04:47:17;98255.44;;;3.68;74.56
56689;BME280;42565;53.342;-1.534;2024-03-23T04:49:44;98250.39;;;2.88;76.68
56689;BME280;42565;53.342;-1.534;2024-03-23T04:52:11;98247.47;;;3.47;77.33
56689;BME280;42565;53.342;-1.534;2024-03-23T04:54:38;98254.76;;;3.77;77.16
56689;BME280;42565;53.342;-1.534;2024-03-23T04:57:05;98256.60;;;3.60;75.79
56689;BME280;42565;53.342;-1.534;2024-03-23T04:59:32;98253.80;;;3.03;75.38
56689;BME280;42565;53.342;-1.534;2024-03-23T05:02:00;98237.38;;;3.37;74.70
56689;BME280;42565;53.342;-1.534;2024-03-23T05:04:27;98234.03;;;3.31;75.26
56689;BME280;42565;53.342;-1.534;2024-03-23T05:06:54;98222.29;;;3.11;75.78
56689;BME280;42565;53.342;-1.534;2024-03-23T05:09:21;98217.87;;;3.52;75.09
56689;BME280;42565;53.342;-1.534;2024-03-23T05:11:48;98216.12;;;3.81;74.49
56689;BME280;42565;53.342;-1.534;2024-03-23T05:14:15;98221.26;;;3.35;74.20
56689;BME280;42565;53.342;-1.534;2024-03-23T05:16:42;98217.07;;;3.72;74.01
56689;BME280;42565;53.342;-1.534;2024-03-23T05:19:09;98220.66;;;3.59;75.54
56689;BME280;42565;53.342;-1.534;2024-03-23T05:21:36;98208.65;;;2.83;75.80
56689;BME280;42565;53.342;-1.534;2024-03-23T05:24:03;98211.55;;;2.63;80.25
56689;BME280;42565;53.342;-1.534;2024-03-23T05:26:30;98206.98;;;2.16;79.75
56689;BME280;42565;53.342;-1.534;2024-03-23T05:28:58;98195.56;;;3.25;77.59
56689;BME280;42565;53.342;-1.534;2024-03-23T05:31:25;98204.42;;;2.79;76.95
56689;BME280;42565;53.342;-1.534;2024-03-23T05:33:53;98210.01;;;2.99;76.98
56689;BME280;42565;53.342;-1.534;2024-03-23T05:36:19;98205.48;;;3.09;76.21
56689;BME280;42565;53.342;-1.534;2024-03-23T05:38:47;98198.07;;;2.99;75.59
56689;BME280;42565;53.342;-1.534;2024-03-23T05:41:15;98203.54;;;3.70;72.88
56689;BME280;42565;53.342;-1.534;2024-03-23T05:43:42;98204.85;;;4.12;72.23
56689;BME280;42565;53.342;-1.534;2024-03-23T05:46:08;98204.13;;;3.65;74.27
56689;BME280;42565;53.342;-1.534;2024-03-23T05:48:36;98213.84;;;3.07;76.47
56689;BME280;42565;53.342;-1.534;2024-03-23T05:51:04;98201.61;;;2.96;77.63
56689;BME280;42565;53.342;-1.534;2024-03-23T05:53:31;98195.31;;;2.31;78.08
56689;BME280;42565;53.342;-1.534;2024-03-23T05:56:02;98186.09;;;2.84;77.76
56689;BME280;42565;53.342;-1.534;2024-03-23T05:58:30;98176.48;;;2.59;76.44
56689;BME280;42565;53.342;-1.534;2024-03-23T06:00:58;98177.95;;;3.09;73.88
56689;BME280;42565;53.342;-1.534;2024-03-23T06:03:26;98185.22;;;3.42;71.48
56689;BME280;42565;53.342;-1.534;2024-03-23T06:05:54;98191.15;;;3.41;72.22
56689;BME280;42565;53.342;-1.534;2024-03-23T06:08:21;98199.11;;;3.09;73.73
56689;BME280;42565;53.342;-1.534;2024-03-23T06:10:49;98192.75;;;2.89;74.57
56689;BME280;42565;53.342;-1.534;2024-03-23T06:13:16;98186.39;;;3.11;74.23
56689;BME280;42565;53.342;-1.534;2024-03-23T06:15:43;98187.30;;;3.11;75.69
56689;BME280;42565;53.342;-1.534;2024-03-23T06:18:11;98183.27;;;3.01;77.02
56689;BME280;42565;53.342;-1.534;2024-03-23T06:20:38;98173.65;;;3.06;76.05
56689;BME280;42565;53.342;-1.534;2024-03-23T06:23:04;98175.87;;;3.77;73.47
56689;BME280;42565;53.342;-1.534;2024-03-23T06:25:32;98171.82;;;2.58;74.54
56689;BME280;42565;53.342;-1.534;2024-03-23T06:27:59;98178.78;;;3.60;74.05
56689;BME280;42565;53.342;-1.534;2024-03-23T06:30:27;98187.97;;;3.63;74.01
56689;BME280;42565;53.342;-1.534;2024-03-23T06:32:54;98197.78;;;3.35;76.46
56689;BME280;42565;53.342;-1.534;2024-03-23T06:35:21;98190.03;;;2.78;79.44
56689;BME280;42565;53.342;-1.534;2024-03-23T06:37:48;98193.44;;;3.02;79.04
56689;BME280;42565;53.342;-1.534;2024-03-23T06:40:15;98195.11;;;3.05;77.14
56689;BME280;42565;53.342;-1.534;2024-03-23T06:42:42;98205.18;;;2.74;78.70
56689;BME280;42565;53.342;-1.534;2024-03-23T06:45:09;98198.83;;;3.26;77.10
56689;BME280;42565;53.342;-1.534;2024-03-23T06:47:36;98191.76;;;2.97;77.12
56689;BME280;42565;53.342;-1.534;2024-03-23T06:50:05;98195.98;;;3.72;76.01
56689;BME280;42565;53.342;-1.534;2024-03-23T06:52:32;98180.69;;;3.41;75.17
56689;BME280;42565;53.342;-1.534;2024-03-23T06:54:59;98181.82;;;4.21;74.27
56689;BME280;42565;53.342;-1.534;2024-03-23T06:57:26;98194.95;;;3.54;75.26
56689;BME280;42565;53.342;-1.534;2024-03-23T06:59:53;98173.59;;;4.09;75.14
56689;BME280;42565;53.342;-1.534;2024-03-23T07:02:20;98169.00;;;3.89;73.94
56689;BME280;42565;53.342;-1.534;2024-03-23T07:04:47;98184.78;;;4.09;74.34
56689;BME280;42565;53.342;-1.534;2024-03-23T07:07:14;98177.69;;;4.25;74.74
56689;BME280;42565;53.342;-1.534;2024-03-23T07:09:40;98176.90;;;4.29;72.70
56689;BME280;42565;53.342;-1.534;2024-03-23T07:12:07;98172.44;;;3.88;73.45
56689;BME280;42565;53.342;-1.534;2024-03-23T07:14:35;98182.62;;;3.28;76.39
56689;BME280;42565;53.342;-1.534;2024-03-23T07:17:02;98186.41;;;3.01;76.84
56689;BME280;42565;53.342;-1.534;2024-03-23T07:19:29;98185.43;;;2.82;78.01
56689;BME280;42565;53.342;-1.534;2024-03-23T07:21:56;98188.72;;;2.70;77.58
56689;BME280;42565;53.342;-1.534;2024-03-23T07:24:23;98187.32;;;3.13;77.02
56689;BME280;42565;53.342;-1.534;2024-03-23T07:26:50;98186.08;;;2.94;77.63
56689;BME280;42565;53.342;-1.534;2024-03-23T07:29:17;98199.35;;;3.67;76.81
56689;BME280;42565;53.342;-1.534;2024-03-23T07:31:45;98196.03;;;4.14;74.16
56689;BME280;42565;53.342;-1.534;2024-03-23T07:34:11;98189.07;;;4.11;73.56
56689;BME280;42565;53.342;-1.534;2024-03-23T07:36:38;98193.26;;;4.15;73.17
56689;BME280;42565;53.342;-1.534;2024-03-23T07:39:05;98190.49;;;4.51;73.82
56689;BME280;42565;53.342;-1.534;2024-03-23T07:41:32;98187.07;;;4.58;73.10
56689;BME280;42565;53.342;-1.534;2024-03-23T07:43:59;98196.23;;;4.83;70.62
56689;BME280;42565;53.342;-1.534;2024-03-23T07:46:26;98188.89;;;4.84;72.41
56689;BME280;42565;53.342;-1.534;2024-03-23T07:48:53;98187.82;;;4.94;70.12
56689;BME280;42565;53.342;-1.534;2024-03-23T07:51:23;98202.01;;;4.49;71.53
56689;BME280;42565;53.342;-1.534;2024-03-23T07:53:51;98190.59;;;3.93;72.56
56689;BME280;42565;53.342;-1.534;2024-03-23T07:56:18;98183.76;;;4.17;71.65
56689;BME280;42565;53.342;-1.534;2024-03-23T07:58:46;98180.32;;;4.94;73.25
56689;BME280;42565;53.342;-1.534;2024-03-23T08:01:14;98175.83;;;4.81;72.26
56689;BME280;42565;53.342;-1.534;2024-03-23T08:03:42;98174.06;;;4.21;72.60
56689;BME280;42565;53.342;-1.534;2024-03-23T08:06:11;98167.77;;;4.76;71.13
56689;BME280;42565;53.342;-1.534;2024-03-23T08:08:39;98169.38;;;4.71;70.62
56689;BME280;42565;53.342;-1.534;2024-03-23T08:11:07;98169.46;;;4.84;70.76
56689;BME280;42565;53.342;-1.534;2024-03-23T08:13:35;98168.64;;;4.66;69.79
56689;BME280;42565;53.342;-1.534;2024-03-23T08:16:03;98167.30;;;5.18;71.09
56689;BME280;42565;53.342;-1.534;2024-03-23T08:18:32;98167.12;;;4.79;71.22
56689;BME280;42565;53.342;-1.534;2024-03-23T08:20:59;98153.59;;;4.41;72.66
56689;BME280;42565;53.342;-1.534;2024-03-23T08:23:28;98170.42;;;4.56;73.29
56689;BME280;42565;53.342;-1.534;2024-03-23T08:25:57;98169.52;;;4.91;72.54
56689;BME280;42565;53.342;-1.534;2024-03-23T08:28:25;98170.26;;;5.12;71.80
56689;BME280;42565;53.342;-1.534;2024-03-23T08:30:52;98175.62;;;4.90;70.22
56689;BME280;42565;53.342;-1.534;2024-03-23T08:33:19;98155.25;;;4.77;70.57
56689;BME280;42565;53.342;-1.534;2024-03-23T08:35:53;98147.21;;;4.70;72.57
56689;BME280;42565;53.342;-1.534;2024-03-23T08:38:21;98139.23;;;5.09;71.43
56689;BME280;42565;53.342;-1.534;2024-03-23T08:40:56;98138.04;;;4.54;71.70
56689;BME280;42565;53.342;-1.534;2024-03-23T08:43:23;98135.52;;;5.04;71.56
56689;BME280;42565;53.342;-1.534;2024-03-23T08:45:50;98129.87;;;4.94;71.10
56689;BME280;42565;53.342;-1.534;2024-03-23T08:48:19;98117.46;;;5.26;69.90
56689;BME280;42565;53.342;-1.534;2024-03-23T08:50:46;98119.96;;;5.91;70.14
56689;BME280;42565;53.342;-1.534;2024-03-23T08:53:13;98117.08;;;6.01;66.84
56689;BME280;42565;53.342;-1.534;2024-03-23T08:55:41;98125.41;;;5.69;64.87
56689;BME280;42565;53.342;-1.534;2024-03-23T08:58:08;98117.03;;;6.24;65.07
56689;BME280;42565;53.342;-1.534;2024-03-23T09:00:35;98119.20;;;6.07;65.97
56689;BME280;42565;53.342;-1.534;2024-03-23T09:03:01;98123.21;;;7.05;66.47
56689;BME280;42565;53.342;-1.534;2024-03-23T09:05:28;98140.42;;;6.98;66.56
56689;BME280;42565;53.342;-1.534;2024-03-23T09:07:56;98133.36;;;6.19;68.54
56689;BME280;42565;53.342;-1.534;2024-03-23T09:10:22;98138.25;;;5.75;69.42
56689;BME280;42565;53.342;-1.534;2024-03-23T09:12:49;98136.48;;;6.29;72.47
56689;BME280;42565;53.342;-1.534;2024-03-23T09:15:16;98129.51;;;6.75;68.10
56689;BME280;42565;53.342;-1.534;2024-03-23T09:17:42;98135.98;;;6.29;68.73
56689;BME280;42565;53.342;-1.534;2024-03-23T09:20:10;98134.28;;;6.37;65.59
56689;BME280;42565;53.342;-1.534;2024-03-23T09:22:38;98121.37;;;6.31;65.78
56689;BME280;42565;53.342;-1.534;2024-03-23T09:25:06;98115.76;;;6.95;62.47
56689;BME280;42565;53.342;-1.534;2024-03-23T09:27:33;98123.81;;;6.83;61.91
56689;BME280;42565;53.342;-1.534;2024-03-23T09:30:00;98115.19;;;6.98;61.53
56689;BME280;42565;53.342;-1.534;2024-03-23T09:32:27;98111.50;;;7.88;60.31
56689;BME280;42565;53.342;-1.534;2024-03-23T09:34:54;98107.75;;;7.61;59.10
56689;BME280;42565;53.342;-1.534;2024-03-23T09:37:21;98110.23;;;7.36;61.03
56689;BME280;42565;53.342;-1.534;2024-03-23T09:39:47;98111.50;;;6.96;61.23
56689;BME280;42565;53.342;-1.534;2024-03-23T09:42:14;98103.18;;;6.99;61.50
56689;BME280;42565;53.342;-1.534;2024-03-23T09:44:41;98101.99;;;6.50;62.61
56689;BME280;42565;53.342;-1.534;2024-03-23T09:47:08;98107.01;;;7.26;64.68
56689;BME280;42565;53.342;-1.534;2024-03-23T09:49:35;98106.23;;;6.38;62.10
56689;BME280;42565;53.342;-1.534;2024-03-23T09:52:03;98097.63;;;7.19;61.08
56689;BME280;42565;53.342;-1.534;2024-03-23T09:54:31;98096.48;;;6.64;58.89
56689;BME280;42565;53.342;-1.534;2024-03-23T09:56:58;98106.61;;;6.85;60.23
56689;BME280;42565;53.342;-1.534;2024-03-23T09:59:25;98098.75;;;7.11;58.72
56689;BME280;42565;53.342;-1.534;2024-03-23T10:01:53;98088.80;;;7.17;62.02
56689;BME280;42565;53.342;-1.534;2024-03-23T10:04:36;98090.59;;;7.56;57.11
56689;BME280;42565;53.342;-1.534;2024-03-23T10:07:12;98083.62;;;7.49;57.05
56689;BME280;42565;53.342;-1.534;2024-03-23T10:09:39;98078.98;;;8.00;57.62
56689;BME280;42565;53.342;-1.534;2024-03-23T10:12:09;98074.89;;;7.32;56.66
56689;BME280;42565;53.342;-1.534;2024-03-23T10:14:36;98085.17;;;7.79;55.98
56689;BME280;42565;53.342;-1.534;2024-03-23T10:17:13;98080.94;;;8.00;54.77
56689;BME280;42565;53.342;-1.534;2024-03-23T10:19:41;98086.00;;;8.59;53.22
56689;BME280;42565;53.342;-1.534;2024-03-23T10:22:09;98079.81;;;8.37;53.46
56689;BME280;42565;53.342;-1.534;2024-03-23T10:24:37;98080.66;;;8.21;51.67
56689;BME280;42565;53.342;-1.534;2024-03-23T10:27:03;98086.59;;;8.57;51.21
56689;BME280;42565;53.342;-1.534;2024-03-23T10:29:30;98080.97;;;9.09;52.51
56689;BME280;42565;53.342;-1.534;2024-03-23T10:32:14;98068.13;;;8.97;50.57
56689;BME280;42565;53.342;-1.534;2024-03-23T10:34:42;98071.26;;;9.31;48.72
56689;BME280;42565;53.342;-1.534;2024-03-23T10:37:09;98071.27;;;9.63;50.78
56689;BME280;42565;53.342;-1.534;2024-03-23T10:39:38;98074.63;;;8.57;47.87
56689;BME280;42565;53.342;-1.534;2024-03-23T10:42:06;98064.53;;;8.78;48.67
56689;BME280;42565;53.342;-1.534;2024-03-23T10:44:34;98063.22;;;8.66;49.15
56689;BME280;42565;53.342;-1.534;2024-03-23T10:47:02;98070.27;;;8.48;49.97
56689;BME280;42565;53.342;-1.534;2024-03-23T10:49:31;98071.14;;;8.15;51.12
56689;BME280;42565;53.342;-1.534;2024-03-23T10:52:00;98068.95;;;8.50;50.06
56689;BME280;42565;53.342;-1.534;2024-03-23T10:54:27;98069.44;;;8.69;50.39
56689;BME280;42565;53.342;-1.534;2024-03-23T10:56:59;98084.60;;;8.20;49.76
56689;BME280;42565;53.342;-1.534;2024-03-23T10:59:29;98094.27;;;7.86;51.42
56689;BME280;42565;53.342;-1.534;2024-03-23T11:01:57;98103.72;;;7.02;54.99
56689;BME280;42565;53.342;-1.534;2024-03-23T11:04:33;98090.23;;;6.82;58.05
56689;BME280;42565;53.342;-1.534;2024-03-23T11:07:01;98086.60;;;6.08;59.02
56689;BME280;42565;53.342;-1.534;2024-03-23T11:09:45;98080.23;;;6.55;57.79
56689;BME280;42565;53.342;-1.534;2024-03-23T11:12:28;98075.17;;;6.86;58.04
56689;BME280;42565;53.342;-1.534;2024-03-23T11:14:57;98071.69;;;7.39;60.13
56689;BME280;42565;53.342;-1.534;2024-03-23T11:17:26;98062.68;;;7.83;56.17
56689;BME280;42565;53.342;-1.534;2024-03-23T11:19:53;98069.69;;;8.09;51.58
56689;BME280;42565;53.342;-1.534;2024-03-23T11:22:39;98058.20;;;8.54;49.76
56689;BME280;42565;53.342;-1.534;2024-03-23T11:25:14;98061.79;;;8.60;48.86
56689;BME280;42565;53.342;-1.534;2024-03-23T11:27:42;98064.17;;;8.63;48.55
56689;BME280;42565;53.342;-1.534;2024-03-23T11:30:12;98052.19;;;9.14;47.34
56689;BME280;42565;53.342;-1.534;2024-03-23T11:32:39;98054.76;;;8.13;47.90
56689;BME280;42565;53.342;-1.534;2024-03-23T11:35:07;98052.11;;;8.71;50.15
56689;BME280;42565;53.342;-1.534;2024-03-23T11:37:34;98045.46;;;8.41;49.36
56689;BME280;42565;53.342;-1.534;2024-03-23T11:40:01;98045.19;;;8.09;49.61
56689;BME280;42565;53.342;-1.534;2024-03-23T11:42:28;98037.16;;;8.92;49.19
56689;BME280;42565;53.342;-1.534;2024-03-23T11:44:55;98032.79;;;9.31;50.93
56689;BME280;42565;53.342;-1.534;2024-03-23T11:47:22;98031.53;;;9.52;47.12
56689;BME280;42565;53.342;-1.534;2024-03-23T11:49:48;98043.22;;;9.29;46.32
56689;BME280;42565;53.342;-1.534;2024-03-23T11:52:16;98059.82;;;7.87;50.45
56689;BME280;42565;53.342;-1.534;2024-03-23T11:54:43;98047.94;;;8.66;51.36
56689;BME280;42565;53.342;-1.534;2024-03-23T11:57:10;98049.21;;;9.42;50.65
56689;BME280;42565;53.342;-1.534;2024-03-23T11:59:39;98041.37;;;9.49;49.58
56689;BME280;42565;53.342;-1.534;2024-03-23T12:02:07;98036.24;;;9.83;44.83
56689;BME280;42565;53.342;-1.534;2024-03-23T12:04:34;98022.43;;;10.49;42.90
56689;BME280;42565;53.342;-1.534;2024-03-23T12:07:12;98037.22;;;10.56;42.97
56689;BME280;42565;53.342;-1.534;2024-03-23T12:09:39;98029.53;;;10.38;42.54
56689;BME280;42565;53.342;-1.534;2024-03-23T12:12:09;98042.13;;;10.32;43.34
56689;BME280;42565;53.342;-1.534;2024-03-23T12:14:36;98037.70;;;10.56;44.60
56689;BME280;42565;53.342;-1.534;2024-03-23T12:17:12;98020.52;;;9.76;45.02
56689;BME280;42565;53.342;-1.534;2024-03-23T12:19:39;98022.65;;;10.01;43.41
56689;BME280;42565;53.342;-1.534;2024-03-23T12:22:07;98029.27;;;9.87;41.95
56689;BME280;42565;53.342;-1.534;2024-03-23T12:24:35;98021.91;;;8.92;47.71
56689;BME280;42565;53.342;-1.534;2024-03-23T12:27:02;98028.04;;;8.85;51.09
56689;BME280;42565;53.342;-1.534;2024-03-23T12:29:30;98007.07;;;7.92;49.79
56689;BME280;42565;53.342;-1.534;2024-03-23T12:31:59;98012.67;;;8.88;53.37
56689;BME280;42565;53.342;-1.534;2024-03-23T12:34:27;98015.25;;;8.84;50.32
56689;BME280;42565;53.342;-1.534;2024-03-23T12:36:54;98015.94;;;9.31;47.99
56689;BME280;42565;53.342;-1.534;2024-03-23T12:39:22;98026.16;;;10.15;47.11
56689;BME280;42565;53.342;-1.534;2024-03-23T12:41:49;98011.07;;;10.12;47.00
56689;BME280;42565;53.342;-1.534;2024-03-23T12:44:17;98006.87;;;10.23;44.18
56689;BME280;42565;53.342;-1.534;2024-03-23T12:46:44;98005.67;;;10.09;43.30
56689;BME280;42565;53.342;-1.534;2024-03-23T12:49:12;97995.99;;;10.20;41.50
56689;BME280;42565;53.342;-1.534;2024-03-23T12:51:52;97997.17;;;10.21;40.97
56689;BME280;42565;53.342;-1.534;2024-03-23T12:54:20;97995.02;;;10.56;41.33
56689;BME280;42565;53.342;-1.534;2024-03-23T12:56:48;97980.66;;;9.57;40.59
56689;BME280;42565;53.342;-1.534;2024-03-23T12:59:15;97978.39;;;10.36;41.82
56689;BME280;42565;53.342;-1.534;2024-03-23T13:01:43;97975.73;;;9.59;40.91
56689;BME280;42565;53.342;-1.534;2024-03-23T13:04:10;97981.45;;;10.71;40.71
56689;BME280;42565;53.342;-1.534;2024-03-23T13:06:38;97974.37;;;9.66;40.86
56689;BME280;42565;53.342;-1.534;2024-03-23T13:09:04;97968.11;;;9.67;40.98
56689;BME280;42565;53.342;-1.534;2024-03-23T13:11:32;97963.38;;;9.57;41.41
56689;BME280;42565;53.342;-1.534;2024-03-23T13:13:59;97952.20;;;10.47;41.58
56689;BME280;42565;53.342;-1.534;2024-03-23T13:16:26;97954.22;;;10.16;40.70
56689;BME280;42565;53.342;-1.534;2024-03-23T13:18:54;97960.06;;;9.88;41.54
56689;BME280;42565;53.342;-1.534;2024-03-23T13:21:20;97959.85;;;10.07;41.06
56689;BME280;42565;53.342;-1.534;2024-03-23T13:23:48;97947.16;;;10.30;41.43
56689;BME280;42565;53.342;-1.534;2024-03-23T13:26:15;97963.72;;;9.42;41.80
56689;BME280;42565;53.342;-1.534;2024-03-23T13:28:42;97954.30;;;9.07;42.61
56689;BME280;42565;53.342;-1.534;2024-03-23T13:31:10;97956.68;;;9.31;42.54
56689;BME280;42565;53.342;-1.534;2024-03-23T13:33:37;97964.38;;;9.20;43.52
56689;BME280;42565;53.342;-1.534;2024-03-23T13:36:05;97973.35;;;9.62;42.17
56689;BME280;42565;53.342;-1.534;2024-03-23T13:38:32;97967.34;;;9.08;43.27
56689;BME280;42565;53.342;-1.534;2024-03-23T13:41:00;97966.17;;;9.38;41.85
56689;BME280;42565;53.342;-1.534;2024-03-23T13:43:27;97978.98;;;9.46;41.99
56689;BME280;42565;53.342;-1.534;2024-03-23T13:45:56;97973.23;;;9.62;42.15
56689;BME280;42565;53.342;-1.534;2024-03-23T13:48:24;97962.74;;;10.18;42.21
56689;BME280;42565;53.342;-1.534;2024-03-23T13:51:05;97960.75;;;9.70;41.43
56689;BME280;42565;53.342;-1.534;2024-03-23T13:53:33;97967.08;;;8.83;41.54
56689;BME280;42565;53.342;-1.534;2024-03-23T13:56:00;97971.11;;;9.78;41.52